Aeroporto :
LOGIN :

Iscrizione | Disclaimer

   EN    FR    IT 

 










Sommario :    VFR   VFR Marginale   IFR   IFR Intensivo   IFR Molto Intensivo
Visibilità : 
Base nubi : 
>= 8 km
>= 3000ft
5 / 8 km
1000 / 3000 ft
1500m / 5 km
500 / 1000 ft
800 / 1500m
200 / 500 ft
< 800m
< 200 ft
Simboli :   Temporali  Nebbia  Neve Forte  Precipitazioni Forti  Vento > 20 kt
SIGMETs :   Varie  Temporali  Ghiacco  Turbolenza  Onda orograficha  Ceneri Vulcaniche






- Altitudine del aeroporto : 202 ft
- Codice IATA : LGW


EGKK - London Gatwick

ULTIMO METAR :
  • 090950Z 32018G28KT 9999 SCT031 09/03 Q1007

METARs OBSOLETI :
  • 090920Z 32018KT 9999 FEW031 08/03 Q1006
  • 090850Z 31017KT 9999 SCT032 09/03 Q1005
  • 090820Z 31017G27KT 9999 SCT030 08/03 Q1004
  • 090750Z 31019G31KT 9999 SCT032 09/03 Q1002
  • 090720Z 32015G26KT 9999 FEW027 SCT031 08/05 Q1000

TAF TAF EGKK
Valido dal 09 a 06 ore il 10 a 12 ore UTC


090500Z 0906/1012 31015G25KT 9999 SCT025
BECMG 0912/0915 32012KT
BECMG 0918/0921 26006KT
BECMG 1006/1009 19015G25KT
TEMPO 1010/1012 19020G35KT 7000 RA



MetMap, La meteo Aeronautica in un colpo d'occhio ! - Copyright ORBIFLY Dicembre 2007 - Disclaimer

ORBIFLY MET'MAP TEAM :

Programmazione e sviluppo : Alexandra Zaïnal
Concezione : Baudouin d'Aumeries
Aiuto per la programmazione : Marc-Olivier Méhu
Supporto tecnico e logistico : Manuel Goepfert
Aiuto per la traduzione : Arnaldo La Scala

Contatto : metmap@orbifly.com




FONTI E CREDITI :

   NOAA